createdAt,value
2023-04-28T00:00:33.076Z,101100.59
2023-04-28T00:03:01.410Z,101094.78
2023-04-28T00:05:29.366Z,101089.06
2023-04-28T00:07:57.450Z,101085.16
2023-04-28T00:10:25.389Z,101085.19
2023-04-28T00:12:53.341Z,101082.72
2023-04-28T00:15:21.725Z,101076.56
2023-04-28T00:17:51.059Z,101089.13
2023-04-28T00:20:22.176Z,101080.94
2023-04-28T00:22:50.668Z,101085.59
2023-04-28T00:25:18.848Z,101067.34
2023-04-28T00:27:46.946Z,101066.41
2023-04-28T00:30:15.757Z,101062.19
2023-04-28T00:32:43.800Z,101064.72
2023-04-28T00:35:13.197Z,101058.75
2023-04-28T00:37:41.145Z,101054.03
2023-04-28T00:40:11.055Z,101057.53
2023-04-28T00:42:38.933Z,101056.72
2023-04-28T00:45:08.210Z,101054.00
2023-04-28T00:47:36.177Z,101044.16
2023-04-28T00:50:06.476Z,101049.09
2023-04-28T00:52:35.716Z,101048.03
2023-04-28T00:55:03.568Z,101042.78
2023-04-28T00:57:32.454Z,101044.31
2023-04-28T01:00:01.431Z,101041.88
2023-04-28T01:02:30.791Z,101043.19
2023-04-28T01:05:01.592Z,101026.22
2023-04-28T01:07:30.378Z,101029.88
2023-04-28T01:09:59.994Z,101026.94
2023-04-28T01:12:32.513Z,101026.09
2023-04-28T01:15:01.571Z,101030.63
2023-04-28T01:17:30.423Z,101012.69
2023-04-28T01:19:58.299Z,101006.94
2023-04-28T01:22:26.342Z,101015.44
2023-04-28T01:24:55.632Z,101007.41
2023-04-28T01:27:25.028Z,101012.31
2023-04-28T01:29:53.259Z,101012.22
2023-04-28T01:32:21.084Z,101008.28
2023-04-28T01:34:49.235Z,101008.16
2023-04-28T01:37:17.488Z,101011.00
2023-04-28T01:39:45.499Z,101009.34
2023-04-28T01:42:15.099Z,101000.28
2023-04-28T01:44:43.229Z,100998.09
2023-04-28T01:47:12.128Z,101000.50
2023-04-28T01:49:40.143Z,100988.31
2023-04-28T01:52:09.163Z,100989.63
2023-04-28T01:54:37.561Z,100991.06
2023-04-28T01:57:06.103Z,100988.41
2023-04-28T01:59:35.926Z,100984.78
2023-04-28T02:02:03.918Z,100973.78
2023-04-28T02:04:32.100Z,100978.81
2023-04-28T02:07:00.233Z,100971.53
2023-04-28T02:09:28.107Z,100973.84
2023-04-28T02:11:59.965Z,100976.25
2023-04-28T02:14:28.168Z,100976.16
2023-04-28T02:16:57.767Z,100971.63
2023-04-28T02:19:25.618Z,100965.44
2023-04-28T02:21:53.716Z,100967.19
2023-04-28T02:24:21.545Z,100960.22
2023-04-28T02:26:49.440Z,100953.00
2023-04-28T02:29:17.399Z,100957.28
2023-04-28T02:31:45.316Z,100953.13
2023-04-28T02:34:15.684Z,100949.31
2023-04-28T02:36:43.784Z,100939.22
2023-04-28T02:39:11.784Z,100936.91
2023-04-28T02:41:39.676Z,100930.97
2023-04-28T02:44:07.671Z,100918.19
2023-04-28T02:46:36.009Z,100917.88
2023-04-28T02:49:05.479Z,100923.28
2023-04-28T02:51:34.938Z,100917.44
2023-04-28T02:54:02.875Z,100924.41
2023-04-28T02:56:31.570Z,100922.66
2023-04-28T02:59:00.326Z,100917.47
2023-04-28T03:01:29.490Z,100912.00
2023-04-28T03:03:57.726Z,100914.13
2023-04-28T03:06:26.536Z,100909.53
2023-04-28T03:08:55.801Z,100899.66
2023-04-28T03:11:24.168Z,100899.44
2023-04-28T03:13:52.015Z,100904.19
2023-04-28T03:16:19.872Z,100898.97
2023-04-28T03:18:47.996Z,100891.88
2023-04-28T03:21:15.893Z,100888.94
2023-04-28T03:23:43.865Z,100887.63
2023-04-28T03:26:13.179Z,100878.16
2023-04-28T03:28:41.526Z,100894.19
2023-04-28T03:31:09.306Z,100887.28
2023-04-28T03:33:37.349Z,100878.28
2023-04-28T03:36:05.719Z,100880.19
2023-04-28T03:38:33.653Z,100872.72
2023-04-28T03:41:01.732Z,100869.97
2023-04-28T03:43:35.521Z,100868.75
2023-04-28T03:46:29.691Z,100860.81
2023-04-28T03:48:58.466Z,100861.97
2023-04-28T03:51:27.865Z,100854.91
2023-04-28T03:53:56.466Z,100859.53
2023-04-28T03:56:24.744Z,100855.72
2023-04-28T03:58:54.074Z,100851.47
2023-04-28T04:01:22.302Z,100852.81
2023-04-28T04:03:51.526Z,100850.16
2023-04-28T04:06:19.971Z,100846.41
2023-04-28T04:08:48.074Z,100848.13
2023-04-28T04:11:17.028Z,100843.75
2023-04-28T04:13:44.888Z,100833.97
2023-04-28T04:16:17.893Z,100835.41
2023-04-28T04:18:45.824Z,100828.28
2023-04-28T04:21:20.077Z,100828.50
2023-04-28T04:23:50.077Z,100833.69
2023-04-28T04:26:17.943Z,100832.91
2023-04-28T04:28:46.101Z,100832.56
2023-04-28T04:31:14.223Z,100823.31
2023-04-28T04:33:43.661Z,100828.13
2023-04-28T04:36:12.229Z,100828.22
2023-04-28T04:38:40.554Z,100827.31
2023-04-28T04:41:17.072Z,100826.91
2023-04-28T04:43:45.251Z,100813.53
2023-04-28T04:46:13.354Z,100811.31
2023-04-28T04:48:43.177Z,100813.56
2023-04-28T04:51:11.400Z,100820.13
2023-04-28T04:53:39.496Z,100817.50
2023-04-28T04:56:08.137Z,100813.44
2023-04-28T04:58:38.203Z,100815.94
2023-04-28T05:01:30.631Z,100816.41
2023-04-28T05:04:00.702Z,100810.84
2023-04-28T05:06:28.791Z,100810.28
2023-04-28T05:08:58.338Z,100813.44
2023-04-28T05:11:26.823Z,100815.66
2023-04-28T05:13:54.774Z,100808.94
2023-04-28T05:16:23.034Z,100803.91
2023-04-28T05:19:11.710Z,100806.41
2023-04-28T05:21:39.659Z,100799.94
2023-04-28T05:24:08.085Z,100800.25
2023-04-28T05:26:37.383Z,100793.81
2023-04-28T05:29:09.577Z,100794.06
2023-04-28T05:31:38.030Z,100794.00
2023-04-28T05:34:06.305Z,100784.28
2023-04-28T05:36:36.121Z,100783.84
2023-04-28T05:39:05.173Z,100789.28
2023-04-28T05:41:33.119Z,100784.53
2023-04-28T05:44:00.982Z,100785.97
2023-04-28T05:46:31.085Z,100781.59
2023-04-28T05:49:00.642Z,100776.34
2023-04-28T05:51:35.029Z,100780.16
2023-04-28T05:54:03.601Z,100774.69
2023-04-28T05:56:34.096Z,100770.28
2023-04-28T05:59:04.329Z,100766.94
2023-04-28T06:01:32.610Z,100771.31
2023-04-28T06:04:01.405Z,100765.06
2023-04-28T06:06:29.872Z,100770.22
2023-04-28T06:08:59.569Z,100771.59
2023-04-28T06:11:27.536Z,100754.72
2023-04-28T06:13:55.530Z,100755.28
2023-04-28T06:16:23.688Z,100757.69
2023-04-28T06:18:52.161Z,100753.31
2023-04-28T06:21:24.190Z,100748.81
2023-04-28T06:23:52.192Z,100754.81
2023-04-28T06:26:21.844Z,100747.84
2023-04-28T06:28:50.705Z,100749.69
2023-04-28T06:31:18.839Z,100753.00
2023-04-28T06:33:46.832Z,100751.78
2023-04-28T06:36:16.918Z,100760.09
2023-04-28T06:38:44.936Z,100754.53
2023-04-28T06:41:13.310Z,100747.16
2023-04-28T06:43:45.778Z,100758.22
2023-04-28T06:46:22.315Z,100757.25
2023-04-28T06:48:50.890Z,100759.84
2023-04-28T06:51:18.763Z,100754.41
2023-04-28T06:53:46.743Z,100756.06
2023-04-28T06:56:15.555Z,100744.81
2023-04-28T06:58:45.084Z,100746.25
2023-04-28T07:01:13.165Z,100734.91
2023-04-28T07:03:41.386Z,100741.84
2023-04-28T07:06:09.793Z,100731.75
2023-04-28T07:08:37.972Z,100724.38
2023-04-28T07:11:06.428Z,100732.09
2023-04-28T07:13:34.576Z,100724.31
2023-04-28T07:16:04.109Z,100729.69
2023-04-28T07:18:32.152Z,100726.03
2023-04-28T07:21:00.160Z,100730.78
2023-04-28T07:23:28.025Z,100715.88
2023-04-28T07:25:55.867Z,100720.72
2023-04-28T07:28:23.783Z,100717.69
2023-04-28T07:30:51.927Z,100718.72
2023-04-28T07:33:21.381Z,100723.72
2023-04-28T07:35:54.502Z,100713.38
2023-04-28T07:38:34.762Z,100717.38
2023-04-28T07:41:05.729Z,100721.78
2023-04-28T07:43:35.642Z,100717.13
2023-04-28T07:46:03.575Z,100711.66
2023-04-28T07:48:33.194Z,100713.31
2023-04-28T07:51:01.071Z,100704.22
2023-04-28T07:53:29.054Z,100709.63
2023-04-28T07:55:57.011Z,100700.03
2023-04-28T07:58:24.856Z,100695.31
2023-04-28T08:00:52.759Z,100695.16
2023-04-28T08:03:21.513Z,100699.06
2023-04-28T08:05:51.185Z,100694.88
2023-04-28T08:08:19.411Z,100690.91
2023-04-28T08:10:47.430Z,100694.44
2023-04-28T08:13:16.632Z,100689.00
2023-04-28T08:15:44.755Z,100684.47
2023-04-28T08:18:12.892Z,100679.53
2023-04-28T08:20:41.576Z,100684.97
2023-04-28T08:23:11.609Z,100674.38
2023-04-28T08:25:39.605Z,100685.59
2023-04-28T08:28:08.714Z,100682.47
2023-04-28T08:30:38.727Z,100679.34
2023-04-28T08:33:07.714Z,100681.34
2023-04-28T08:35:36.017Z,100676.13
2023-04-28T08:38:03.981Z,100680.59
2023-04-28T08:40:33.808Z,100677.28
2023-04-28T08:43:01.934Z,100676.94
2023-04-28T08:45:32.794Z,100665.06
2023-04-28T08:48:02.200Z,100666.75
2023-04-28T08:50:32.838Z,100673.38
2023-04-28T08:53:03.693Z,100666.47
2023-04-28T08:55:33.537Z,100672.00
2023-04-28T08:58:03.792Z,100666.91
2023-04-28T09:00:32.528Z,100666.78
2023-04-28T09:03:00.781Z,100668.91
2023-04-28T09:05:28.768Z,100664.88
2023-04-28T09:07:57.002Z,100657.88
2023-04-28T09:10:26.439Z,100649.03
2023-04-28T09:12:57.985Z,100649.28
2023-04-28T09:15:33.255Z,100643.06
2023-04-28T09:18:03.063Z,100645.03
2023-04-28T09:20:32.500Z,100640.47
2023-04-28T09:23:14.849Z,100645.84
2023-04-28T09:25:56.431Z,100644.41
2023-04-28T09:28:26.150Z,100634.72
2023-04-28T09:30:54.938Z,100634.13
2023-04-28T09:33:23.271Z,100635.75
2023-04-28T09:35:51.552Z,100632.88
2023-04-28T09:38:20.885Z,100620.28
2023-04-28T09:40:54.055Z,100626.88
2023-04-28T09:43:27.857Z,100626.38
2023-04-28T09:45:56.384Z,100626.19
2023-04-28T09:48:32.440Z,100629.41
2023-04-28T09:51:01.444Z,100624.50
2023-04-28T09:53:30.555Z,100625.41
2023-04-28T09:56:00.017Z,100619.47
2023-04-28T09:58:32.462Z,100629.78
2023-04-28T10:01:01.798Z,100629.88
2023-04-28T10:03:31.644Z,100632.72
2023-04-28T10:06:01.022Z,100626.78
2023-04-28T10:08:29.568Z,100619.25
2023-04-28T10:10:59.133Z,100625.59
2023-04-28T10:13:29.365Z,100632.91
2023-04-28T10:15:58.604Z,100625.91
2023-04-28T10:18:26.866Z,100623.41
2023-04-28T10:20:59.394Z,100625.22
2023-04-28T10:24:08.871Z,100614.31
2023-04-28T10:27:05.751Z,100617.00
2023-04-28T10:29:36.034Z,100607.91
2023-04-28T10:32:20.961Z,100597.00
2023-04-28T10:34:49.474Z,100597.81
2023-04-28T10:37:19.073Z,100604.00
2023-04-28T10:40:32.801Z,100601.31
2023-04-28T10:43:01.089Z,100605.66
2023-04-28T10:46:06.209Z,100599.31
2023-04-28T10:48:57.494Z,100591.94
2023-04-28T10:51:30.154Z,100595.72
2023-04-28T10:54:19.099Z,100595.22
2023-04-28T10:57:22.843Z,100598.56
2023-04-28T10:59:51.390Z,100596.69
2023-04-28T11:02:46.128Z,100584.72
2023-04-28T11:05:19.326Z,100585.34
2023-04-28T11:08:31.236Z,100576.38
2023-04-28T11:11:25.905Z,100581.28
2023-04-28T11:13:55.572Z,100583.97
2023-04-28T11:16:25.837Z,100572.38
2023-04-28T11:19:07.172Z,100561.84
2023-04-28T11:21:35.241Z,100572.69
2023-04-28T11:24:10.590Z,100560.53
2023-04-28T11:26:39.979Z,100561.13
2023-04-28T11:29:08.688Z,100555.72
2023-04-28T11:31:36.644Z,100556.66
2023-04-28T11:34:08.141Z,100558.81
2023-04-28T11:36:37.480Z,100553.44
2023-04-28T11:39:07.526Z,100548.91
2023-04-28T11:41:36.058Z,100553.88
2023-04-28T11:44:11.783Z,100544.50
2023-04-28T11:46:46.901Z,100550.97
2023-04-28T11:49:16.300Z,100547.41
2023-04-28T11:51:45.968Z,100552.19
2023-04-28T11:54:15.041Z,100548.72
2023-04-28T11:56:44.920Z,100552.53
2023-04-28T11:59:14.163Z,100555.41
2023-04-28T12:01:50.672Z,100554.59
2023-04-28T12:04:31.909Z,100553.16
2023-04-28T12:07:02.196Z,100547.97
2023-04-28T12:09:30.596Z,100560.38
2023-04-28T12:11:59.776Z,100558.13
2023-04-28T12:14:27.716Z,100557.22
2023-04-28T12:16:56.912Z,100561.66
2023-04-28T12:19:24.776Z,100559.50
2023-04-28T12:22:05.894Z,100567.03
2023-04-28T12:24:35.653Z,100565.97
2023-04-28T12:27:17.686Z,100559.28
2023-04-28T12:29:47.265Z,100549.81
2023-04-28T12:32:16.024Z,100546.06
2023-04-28T12:34:46.053Z,100540.41
2023-04-28T12:37:15.322Z,100536.28
2023-04-28T12:39:44.132Z,100521.22
2023-04-28T12:42:12.480Z,100534.56
2023-04-28T12:44:40.793Z,100532.50
2023-04-28T12:47:10.936Z,100526.69
2023-04-28T12:49:39.495Z,100517.53
2023-04-28T12:52:07.780Z,100522.94
2023-04-28T12:54:37.271Z,100536.09
2023-04-28T12:57:05.730Z,100529.63
2023-04-28T12:59:34.642Z,100528.03
2023-04-28T13:02:02.866Z,100525.06
2023-04-28T13:04:31.388Z,100526.63
2023-04-28T13:07:00.063Z,100506.03
2023-04-28T13:09:28.424Z,100522.59
2023-04-28T13:11:58.735Z,100519.44
2023-04-28T13:14:27.884Z,100518.47
2023-04-28T13:16:56.006Z,100517.78
2023-04-28T13:19:24.078Z,100513.56
2023-04-28T13:21:52.305Z,100512.94
2023-04-28T13:24:20.098Z,100508.97
2023-04-28T13:26:48.078Z,100499.28
2023-04-28T13:29:18.101Z,100497.38
2023-04-28T13:31:46.316Z,100496.56
2023-04-28T13:34:16.401Z,100487.34
2023-04-28T13:36:44.717Z,100483.38
2023-04-28T13:39:14.695Z,100483.72
2023-04-28T13:41:43.164Z,100489.81
2023-04-28T13:44:11.378Z,100489.72
2023-04-28T13:46:40.662Z,100487.38
2023-04-28T13:49:08.570Z,100487.13
2023-04-28T13:51:36.743Z,100484.09
2023-04-28T13:54:05.450Z,100480.34
2023-04-28T13:56:33.692Z,100478.41
2023-04-28T13:59:01.755Z,100479.84
2023-04-28T14:01:29.863Z,100475.38
2023-04-28T14:03:59.475Z,100481.59
2023-04-28T14:06:28.854Z,100466.78
2023-04-28T14:08:56.944Z,100475.84
2023-04-28T14:11:25.062Z,100471.25
2023-04-28T14:13:53.506Z,100475.72
2023-04-28T14:16:21.605Z,100459.50
2023-04-28T14:18:49.840Z,100464.59
2023-04-28T14:21:19.059Z,100469.59
2023-04-28T14:23:46.941Z,100461.47
2023-04-28T14:26:14.893Z,100469.78
2023-04-28T14:28:43.012Z,100464.97
2023-04-28T14:31:10.930Z,100463.94
2023-04-28T14:33:38.952Z,100463.97
2023-04-28T14:36:07.040Z,100465.19
2023-04-28T14:38:38.283Z,100462.06
2023-04-28T14:41:07.614Z,100451.03
2023-04-28T14:43:35.676Z,100458.16
2023-04-28T14:46:04.050Z,100448.63
2023-04-28T14:48:33.472Z,100446.59
2023-04-28T14:51:01.515Z,100446.59
2023-04-28T14:53:30.331Z,100438.19
2023-04-28T14:56:16.837Z,100432.75
2023-04-28T14:58:45.530Z,100432.44
2023-04-28T15:01:13.495Z,100411.88
2023-04-28T15:03:41.949Z,100408.88
2023-04-28T15:06:11.551Z,100406.91
2023-04-28T15:08:40.356Z,100422.63
2023-04-28T15:11:10.161Z,100414.41
2023-04-28T15:13:38.837Z,100401.75
2023-04-28T15:16:07.773Z,100416.09
2023-04-28T15:18:35.605Z,100405.09
2023-04-28T15:21:03.517Z,100405.84
2023-04-28T15:23:31.535Z,100409.28
2023-04-28T15:26:02.464Z,100395.91
2023-04-28T15:28:32.000Z,100391.59
2023-04-28T15:31:00.024Z,100391.19
2023-04-28T15:33:28.259Z,100376.84
2023-04-28T15:35:56.459Z,100368.56
2023-04-28T15:38:24.350Z,100363.78
2023-04-28T15:40:52.230Z,100370.44
2023-04-28T15:43:20.173Z,100377.13
2023-04-28T15:45:49.484Z,100377.22
2023-04-28T15:48:17.374Z,100381.19
2023-04-28T15:50:45.256Z,100376.47
2023-04-28T15:53:13.326Z,100382.34
2023-04-28T15:55:41.330Z,100373.03
2023-04-28T15:58:10.905Z,100377.16
2023-04-28T16:00:40.667Z,100365.88
2023-04-28T16:03:10.391Z,100379.16
2023-04-28T16:05:39.291Z,100369.75
2023-04-28T16:08:07.265Z,100372.44
2023-04-28T16:10:35.215Z,100357.47
2023-04-28T16:13:05.159Z,100367.75
2023-04-28T16:15:34.314Z,100368.59
2023-04-28T16:18:02.396Z,100368.97
2023-04-28T16:20:31.817Z,100369.97
2023-04-28T16:22:59.628Z,100369.25
2023-04-28T16:25:27.669Z,100375.03
2023-04-28T16:27:55.760Z,100383.66
2023-04-28T16:30:23.961Z,100381.31
2023-04-28T16:32:52.945Z,100383.47
2023-04-28T16:35:21.718Z,100385.88
2023-04-28T16:37:51.057Z,100377.84
2023-04-28T16:40:18.983Z,100377.59
2023-04-28T16:42:46.839Z,100377.31
2023-04-28T16:45:15.598Z,100372.09
2023-04-28T16:47:44.146Z,100370.19
2023-04-28T16:50:14.538Z,100374.91
2023-04-28T16:52:42.752Z,100379.88
2023-04-28T16:55:12.473Z,100380.78
2023-04-28T16:57:40.509Z,100377.13
2023-04-28T17:00:10.047Z,100373.41
2023-04-28T17:02:38.307Z,100361.91
2023-04-28T17:05:07.417Z,100364.31
2023-04-28T17:07:35.555Z,100363.97
2023-04-28T17:10:03.852Z,100373.63
2023-04-28T17:12:33.093Z,100366.50
2023-04-28T17:15:01.393Z,100356.56
2023-04-28T17:17:29.843Z,100355.41
2023-04-28T17:20:00.218Z,100345.75
2023-04-28T17:22:28.968Z,100348.84
2023-04-28T17:24:57.333Z,100350.84
2023-04-28T17:27:25.429Z,100347.03
2023-04-28T17:29:54.914Z,100343.28
2023-04-28T17:32:22.890Z,100350.47
2023-04-28T17:34:51.344Z,100340.13
2023-04-28T17:37:19.393Z,100346.13
2023-04-28T17:39:47.225Z,100325.81
2023-04-28T17:42:15.389Z,100322.06
2023-04-28T17:44:43.553Z,100320.25
2023-04-28T17:47:15.150Z,100319.09
2023-04-28T17:49:44.652Z,100310.28
2023-04-28T17:52:12.672Z,100309.44
2023-04-28T17:54:40.552Z,100312.53
2023-04-28T17:57:08.487Z,100312.78
2023-04-28T17:59:36.389Z,100309.38
2023-04-28T18:02:05.348Z,100307.41
2023-04-28T18:04:36.620Z,100313.19
2023-04-28T18:07:04.770Z,100318.59
2023-04-28T18:09:32.746Z,100306.50
2023-04-28T18:12:03.006Z,100304.00
2023-04-28T18:14:33.850Z,100302.97
2023-04-28T18:17:05.272Z,100303.34
2023-04-28T18:19:34.487Z,100308.75
2023-04-28T18:22:02.458Z,100308.50
2023-04-28T18:24:33.348Z,100308.25
2023-04-28T18:27:02.170Z,100307.03
2023-04-28T18:29:30.598Z,100312.78
2023-04-28T18:31:58.506Z,100307.91
2023-04-28T18:34:27.322Z,100302.13
2023-04-28T18:36:56.605Z,100294.09
2023-04-28T18:39:24.619Z,100290.28
2023-04-28T18:41:52.468Z,100284.94
2023-04-28T18:44:20.460Z,100296.75
2023-04-28T18:46:48.378Z,100296.72
2023-04-28T18:49:16.341Z,100300.88
2023-04-28T18:51:44.920Z,100302.22
2023-04-28T18:54:16.328Z,100292.44
2023-04-28T18:56:44.458Z,100296.56
2023-04-28T18:59:12.668Z,100297.47
2023-04-28T19:01:40.718Z,100287.97
2023-04-28T19:04:09.520Z,100286.41
2023-04-28T19:06:37.774Z,100291.13
2023-04-28T19:09:06.042Z,100287.44
2023-04-28T19:11:35.391Z,100295.16
2023-04-28T19:14:03.368Z,100294.53
2023-04-28T19:16:31.412Z,100293.69
2023-04-28T19:18:59.390Z,100304.28
2023-04-28T19:21:28.249Z,100302.34
2023-04-28T19:23:57.275Z,100295.47
2023-04-28T19:26:30.088Z,100281.38
2023-04-28T19:29:12.725Z,100310.84
2023-04-28T19:31:42.828Z,100305.84
2023-04-28T19:34:11.530Z,100303.13
2023-04-28T19:36:39.945Z,100312.31
2023-04-28T19:39:08.279Z,100310.88
2023-04-28T19:41:38.855Z,100311.38
2023-04-28T19:44:09.477Z,100315.50
2023-04-28T19:46:38.677Z,100312.84
2023-04-28T19:49:07.616Z,100316.41
2023-04-28T19:51:36.722Z,100309.75
2023-04-28T19:54:08.615Z,100314.19
2023-04-28T19:56:37.783Z,100311.94
2023-04-28T19:59:06.656Z,100309.78
2023-04-28T20:01:42.269Z,100326.81
2023-04-28T20:04:13.376Z,100320.47
2023-04-28T20:06:47.843Z,100321.50
2023-04-28T20:09:19.169Z,100325.50
2023-04-28T20:11:50.907Z,100323.09
2023-04-28T20:14:22.020Z,100323.75
2023-04-28T20:17:01.856Z,100331.75
2023-04-28T20:19:30.815Z,100324.78
2023-04-28T20:22:11.998Z,100325.50
2023-04-28T20:24:46.886Z,100321.81
2023-04-28T20:27:19.822Z,100313.09
2023-04-28T20:29:52.919Z,100328.38
2023-04-28T20:32:36.358Z,100321.09
2023-04-28T20:35:06.444Z,100318.38
2023-04-28T20:37:37.550Z,100316.66
2023-04-28T20:40:10.930Z,100316.28
2023-04-28T20:42:40.252Z,100313.69
2023-04-28T20:45:20.306Z,100320.06
2023-04-28T20:47:54.560Z,100316.03
2023-04-28T20:50:27.001Z,100315.41
2023-04-28T20:53:00.612Z,100315.56
2023-04-28T20:55:34.309Z,100319.63
2023-04-28T20:58:03.524Z,100315.44
2023-04-28T21:00:36.914Z,100323.94
2023-04-28T21:03:08.426Z,100320.34
2023-04-28T21:05:38.397Z,100315.94
2023-04-28T21:08:08.213Z,100316.91
2023-04-28T21:10:46.664Z,100316.66
2023-04-28T21:13:30.146Z,100320.97
2023-04-28T21:16:09.552Z,100314.97
2023-04-28T21:18:53.115Z,100312.97
2023-04-28T21:21:40.122Z,100310.75
2023-04-28T21:24:13.972Z,100316.66
2023-04-28T21:26:48.138Z,100307.06
2023-04-28T21:29:22.274Z,100321.81
2023-04-28T21:31:55.801Z,100324.09
2023-04-28T21:34:48.410Z,100321.94
2023-04-28T21:37:20.580Z,100323.66
2023-04-28T21:39:52.183Z,100326.00
2023-04-28T21:42:27.480Z,100326.66
2023-04-28T21:45:03.671Z,100327.34
2023-04-28T21:47:34.386Z,100328.09
2023-04-28T21:50:11.138Z,100333.00
2023-04-28T21:52:43.629Z,100330.94
2023-04-28T21:55:19.119Z,100332.47
2023-04-28T21:57:49.798Z,100332.31
2023-04-28T22:00:23.418Z,100328.94
2023-04-28T22:03:11.259Z,100326.72
2023-04-28T22:05:46.121Z,100320.72
2023-04-28T22:08:21.179Z,100321.47
2023-04-28T22:11:01.462Z,100333.56
2023-04-28T22:13:37.885Z,100323.47
2023-04-28T22:16:12.183Z,100330.94
2023-04-28T22:18:41.379Z,100336.94
2023-04-28T22:21:13.728Z,100340.38
2023-04-28T22:23:43.121Z,100339.03
2023-04-28T22:26:11.986Z,100340.72
2023-04-28T22:28:43.440Z,100356.19
2023-04-28T22:31:16.102Z,100342.81
2023-04-28T22:33:50.987Z,100342.72
2023-04-28T22:36:26.062Z,100353.25
2023-04-28T22:39:02.496Z,100343.41
2023-04-28T22:41:44.416Z,100343.97
2023-04-28T22:44:20.701Z,100349.06
2023-04-28T22:46:56.628Z,100356.84
2023-04-28T22:49:32.212Z,100351.88
2023-04-28T22:52:07.762Z,100352.16
2023-04-28T22:54:37.415Z,100353.06
2023-04-28T22:57:06.960Z,100345.63
2023-04-28T22:59:37.453Z,100348.19
2023-04-28T23:02:06.372Z,100350.09
2023-04-28T23:04:38.349Z,100350.66
2023-04-28T23:07:10.956Z,100347.97
2023-04-28T23:09:43.594Z,100346.09
2023-04-28T23:12:17.686Z,100350.66
2023-04-28T23:14:47.152Z,100348.28
2023-04-28T23:17:16.498Z,100352.81
2023-04-28T23:19:45.162Z,100345.47
2023-04-28T23:22:15.868Z,100357.03
2023-04-28T23:24:44.962Z,100352.81
2023-04-28T23:27:13.740Z,100357.06
2023-04-28T23:29:43.144Z,100358.06
2023-04-28T23:32:12.957Z,100357.22
2023-04-28T23:34:43.197Z,100355.00
2023-04-28T23:37:12.331Z,100357.66
2023-04-28T23:39:42.788Z,100365.25
2023-04-28T23:42:12.085Z,100366.25
2023-04-28T23:44:41.399Z,100360.94
2023-04-28T23:47:10.317Z,100368.50
2023-04-28T23:49:38.865Z,100356.41
2023-04-28T23:52:08.091Z,100361.81
2023-04-28T23:54:36.676Z,100362.50
2023-04-28T23:57:07.760Z,100357.00
2023-04-28T23:59:36.376Z,100359.41
